Time;durP1;ratioP1;P1;durP2;ratioP2;P2;SDS_P1;SDS_P2;PMS_P1;PMS_P2;Temp;Humidity;BMP_temperature;BMP_pressure;BME280_temperature;BME280_humidity;BME280_pressure;Samples;Min_cycle;Max_cycle;Signal;HPM_P1;HPM_P2
2022/05/27 06:06:32;;;;;;;5.50;2.40;;;14.70;99.90;;;;;;5113316;27;20431;-89
2022/05/27 06:08:57;;;;;;;5.13;1.95;;;14.70;99.90;;;;;;5128806;28;20068;-87
2022/05/27 06:11:23;;;;;;;12.30;3.25;;;14.80;99.90;;;;;;5129223;28;20016;-87
2022/05/27 06:13:49;;;;;;;8.13;2.65;;;14.80;99.90;;;;;;5128134;28;20016;-88
2022/05/27 06:16:14;;;;;;;8.27;2.47;;;14.90;99.90;;;;;;5127800;28;20470;-86
2022/05/27 06:18:40;;;;;;;6.28;2.40;;;14.90;99.90;;;;;;5128016;28;20086;-87
2022/05/27 06:21:06;;;;;;;4.97;2.30;;;15.00;99.90;;;;;;5111965;28;20357;-86
2022/05/27 06:23:32;;;;;;;4.60;2.20;;;15.00;99.90;;;;;;5112541;28;20397;-87
2022/05/27 06:26:00;;;;;;;4.13;1.80;;;15.00;99.90;;;;;;5111818;28;20043;-88
2022/05/27 06:36:43;;;;;;;6.95;2.03;;;15.10;99.90;;;;;;5111932;28;20042;-88
2022/05/27 06:39:09;;;;;;;6.22;1.65;;;15.10;99.90;;;;;;5127671;28;20016;-88
2022/05/27 06:41:35;;;;;;;4.80;2.00;;;15.00;99.90;;;;;;5111222;28;20050;-88
2022/05/27 06:44:02;;;;;;;3.88;1.60;;;15.00;99.90;;;;;;5109991;28;20409;-88
2022/05/27 06:46:29;;;;;;;8.10;1.95;;;14.90;99.90;;;;;;5127179;28;20558;-87
2022/05/27 06:48:54;;;;;;;5.78;2.22;;;14.90;99.90;;;;;;5126928;28;20020;-88
2022/05/27 06:51:21;;;;;;;4.90;1.63;;;14.80;99.90;;;;;;5127407;28;20177;-88
2022/05/27 06:53:47;;;;;;;5.40;1.63;;;14.80;99.90;;;;;;5127592;28;20075;-88
2022/05/27 06:56:13;;;;;;;9.05;2.38;;;14.80;99.90;;;;;;5127112;28;20038;-87
2022/05/27 06:58:40;;;;;;;5.40;1.63;;;14.90;99.90;;;;;;5127042;28;20020;-88
2022/05/27 07:01:07;;;;;;;9.10;2.08;;;14.90;99.90;;;;;;5126972;28;20019;-88
2022/05/27 07:03:33;;;;;;;7.22;2.13;;;14.90;99.90;;;;;;5126810;28;20027;-87
2022/05/27 07:05:59;;;;;;;3.95;1.55;;;14.90;99.90;;;;;;5126223;28;20052;-86
2022/05/27 07:08:25;;;;;;;7.57;1.70;;;14.90;99.90;;;;;;5110996;28;20369;-87
2022/05/27 07:10:51;;;;;;;4.60;1.60;;;14.80;99.90;;;;;;5127276;28;20081;-88
2022/05/27 07:13:18;;;;;;;7.07;1.83;;;14.80;99.90;;;;;;5111273;28;20367;-86
2022/05/27 07:15:44;;;;;;;5.43;1.77;;;14.80;99.90;;;;;;5109385;28;20019;-85
2022/05/27 07:18:11;;;;;;;9.00;2.17;;;14.70;99.90;;;;;;5098497;28;20032;-86
2022/05/27 07:20:37;;;;;;;3.88;1.60;;;14.70;99.90;;;;;;5113005;28;20016;-86
2022/05/27 07:23:04;;;;;;;5.43;1.50;;;14.70;99.90;;;;;;5113012;28;20096;-85
2022/05/27 07:25:34;;;;;;;5.57;1.40;;;14.70;99.90;;;;;;5096774;28;20476;-86
2022/05/27 07:28:01;;;;;;;9.63;2.88;;;14.60;99.90;;;;;;5097415;28;20026;-86
2022/05/27 07:30:26;;;;;;;5.82;1.90;;;14.50;99.90;;;;;;5097643;28;20074;-87
2022/05/27 07:32:52;;;;;;;8.63;1.70;;;14.50;99.90;;;;;;5097022;28;20016;-87
2022/05/27 07:35:18;;;;;;;6.55;1.77;;;14.50;99.90;;;;;;5096667;28;20028;-86
2022/05/27 07:37:43;;;;;;;7.28;1.42;;;14.40;99.90;;;;;;5096237;28;20020;-86
2022/05/27 07:40:10;;;;;;;6.22;1.42;;;14.50;99.90;;;;;;5096858;28;20028;-85
2022/05/27 07:42:36;;;;;;;7.75;2.00;;;14.50;99.90;;;;;;5112258;28;20482;-88
2022/05/27 07:45:01;;;;;;;6.18;1.70;;;14.60;99.90;;;;;;5096758;28;20044;-86
2022/05/27 07:47:27;;;;;;;6.22;1.73;;;14.70;99.90;;;;;;5112210;28;20021;-87
2022/05/27 07:49:52;;;;;;;8.43;2.30;;;14.90;99.90;;;;;;5096578;28;20051;-86
2022/05/27 07:52:18;;;;;;;6.22;1.88;;;15.10;99.90;;;;;;5095299;28;20027;-87
2022/05/27 07:54:44;;;;;;;7.55;2.03;;;15.10;99.90;;;;;;5097159;28;20024;-86
2022/05/27 07:57:26;;;;;;;8.05;1.75;;;15.10;99.90;;;;;;5118750;28;20016;-86
2022/05/27 07:59:54;;;;;;;7.68;1.63;;;15.30;99.90;;;;;;5114171;28;20050;-86
2022/05/27 08:02:23;;;;;;;8.43;2.03;;;15.50;99.90;;;;;;5095555;28;20028;-87
2022/05/27 08:04:50;;;;;;;6.72;1.70;;;15.60;99.90;;;;;;5096473;28;20052;-87
2022/05/27 08:07:15;;;;;;;9.15;2.00;;;15.60;99.90;;;;;;5096838;28;20060;-89
2022/05/27 08:09:41;;;;;;;5.38;1.52;;;15.70;99.90;;;;;;5098644;28;20039;-89
2022/05/27 08:12:07;;;;;;;5.20;1.50;;;15.70;99.90;;;;;;5098524;28;20043;-90
2022/05/27 08:14:33;;;;;;;4.32;1.30;;;15.90;99.90;;;;;;5095586;28;20034;-88
2022/05/27 08:17:00;;;;;;;5.80;1.73;;;15.90;99.90;;;;;;5110378;28;20040;-87
2022/05/27 08:19:26;;;;;;;6.03;1.35;;;16.00;99.90;;;;;;5113080;28;20030;-87
2022/05/27 08:21:51;;;;;;;7.13;1.70;;;16.00;99.90;;;;;;5096133;28;20061;-87
2022/05/27 08:24:17;;;;;;;6.53;1.33;;;16.10;99.90;;;;;;5113529;28;20058;-84
2022/05/27 08:26:43;;;;;;;8.52;1.83;;;16.20;99.90;;;;;;5114890;28;20024;-91
2022/05/27 08:29:09;;;;;;;5.20;1.67;;;16.40;99.90;;;;;;5116726;28;20024;-87
2022/05/27 08:31:36;;;;;;;6.78;1.60;;;16.50;99.90;;;;;;5119682;28;20007;-84
2022/05/27 08:39:33;;;;;;;9.13;2.05;;;16.80;99.90;;;;;;5120075;28;20047;-86
2022/05/27 08:42:35;;;;;;;8.20;2.08;;;16.80;99.90;;;;;;5118785;28;20012;-90
2022/05/27 08:45:12;;;;;;;7.75;2.33;;;16.80;99.90;;;;;;5098143;28;20031;-87
2022/05/27 08:47:46;;;;;;;7.13;1.75;;;16.80;99.90;;;;;;5114208;28;20040;-85
2022/05/27 08:50:32;;;;;;;12.43;2.45;;;16.70;99.90;;;;;;5119132;28;20009;-88
2022/05/27 08:53:13;;;;;;;6.68;1.80;;;16.70;99.90;;;;;;5119388;28;20027;-87
2022/05/27 09:01:30;;;;;;;6.90;1.75;;;17.00;99.90;;;;;;5118855;28;20035;-88
2022/05/27 09:04:05;;;;;;;6.03;1.67;;;17.00;99.90;;;;;;5117714;28;20079;-88
2022/05/27 09:06:36;;;;;;;7.97;1.70;;;17.00;99.90;;;;;;5118191;28;20048;-86
2022/05/27 09:09:05;;;;;;;6.05;1.67;;;17.00;99.90;;;;;;5118280;28;20043;-88
2022/05/27 09:12:02;;;;;;;7.97;2.08;;;17.00;99.90;;;;;;5117785;28;20045;-88
2022/05/27 09:14:31;;;;;;;6.20;1.75;;;17.20;99.90;;;;;;5116213;28;20020;-89
2022/05/27 09:17:04;;;;;;;6.65;1.77;;;17.40;99.90;;;;;;5113270;28;20094;-87
2022/05/27 09:19:52;;;;;;;6.18;1.92;;;17.40;99.90;;;;;;5110038;28;20390;-87
2022/05/27 09:22:24;;;;;;;6.70;1.70;;;17.50;99.90;;;;;;5102890;28;20024;-87
2022/05/27 09:25:07;;;;;;;6.38;2.03;;;17.50;99.90;;;;;;5093925;28;20062;-86
2022/05/27 09:27:48;;;;;;;;;;;17.70;99.90;;;;;;5076700;28;20021;-86
2022/05/27 09:30:16;;;;;;;5.03;1.50;;;17.70;99.90;;;;;;5076877;28;19912;-85
2022/05/27 09:32:47;;;;;;;6.32;1.52;;;18.30;99.90;;;;;;5091175;28;20029;-88
2022/05/27 09:35:35;;;;;;;7.07;1.80;;;18.80;99.90;;;;;;5075271;28;20039;-86
2022/05/27 09:38:04;;;;;;;5.97;1.70;;;19.30;99.90;;;;;;5060376;28;20085;-87
2022/05/27 09:40:42;;;;;;;7.75;1.83;;;20.10;99.90;;;;;;5075420;28;20055;-87
2022/05/27 09:43:29;;;;;;;8.82;2.03;;;20.10;99.90;;;;;;5090989;28;20025;-87
2022/05/27 09:45:58;;;;;;;6.32;2.00;;;20.10;99.90;;;;;;5090867;28;20028;-87
2022/05/27 09:48:25;;;;;;;9.02;1.95;;;20.60;99.90;;;;;;5090834;28;20051;-88
2022/05/27 09:50:51;;;;;;;5.78;1.85;;;21.20;99.90;;;;;;5091645;28;20029;-87
2022/05/27 09:53:27;;;;;;;6.97;1.80;;;21.80;99.90;;;;;;5091201;28;20040;-88
2022/05/27 09:55:57;;;;;;;7.72;1.58;;;22.50;99.90;;;;;;5075591;28;20131;-87
2022/05/27 09:58:29;;;;;;;5.90;1.70;;;22.30;99.80;;;;;;5090957;28;20060;-87
2022/05/27 10:00:55;;;;;;;6.85;1.95;;;22.20;99.70;;;;;;5090763;28;20107;-88
2022/05/27 10:03:36;;;;;;;6.22;1.83;;;22.30;99.70;;;;;;5091091;28;20374;-86
2022/05/27 10:06:05;;;;;;;7.50;1.85;;;22.10;98.20;;;;;;5090431;28;20147;-87
2022/05/27 10:08:32;;;;;;;4.32;1.45;;;22.50;98.30;;;;;;5074604;28;20024;-88
2022/05/27 10:11:21;;;;;;;6.07;1.98;;;22.60;97.10;;;;;;5090360;28;20027;-86
2022/05/27 10:14:07;;;;;;;9.30;2.17;;;22.80;96.70;;;;;;5090119;28;20017;-87
2022/05/27 10:16:34;;;;;;;6.13;1.60;;;21.80;95.70;;;;;;5090367;28;20064;-86
2022/05/27 10:19:23;;;;;;;7.43;1.85;;;20.80;96.50;;;;;;5090381;28;20058;-86
2022/05/27 10:21:53;;;;;;;6.53;1.70;;;20.60;96.90;;;;;;5090489;28;20454;-86
2022/05/27 10:24:25;;;;;;;5.82;1.48;;;20.40;97.00;;;;;;5074557;28;20021;-87
2022/05/27 10:27:04;;;;;;;12.38;2.40;;;20.40;96.80;;;;;;5074083;28;20017;-87
2022/05/27 10:29:31;;;;;;;10.50;2.88;;;20.70;96.60;;;;;;5073604;28;20150;-88
2022/05/27 10:31:59;;;;;;;8.43;1.95;;;21.40;96.10;;;;;;5089158;28;20021;-88
2022/05/27 10:34:47;;;;;;;7.82;2.13;;;22.20;95.20;;;;;;5090300;28;20031;-87
2022/05/27 10:37:38;;;;;;;6.22;1.85;;;22.80;93.60;;;;;;5074602;28;20032;-87
2022/05/27 10:40:22;;;;;;;8.98;2.38;;;23.10;93.30;;;;;;5090203;28;20051;-88
2022/05/27 10:42:47;;;;;;;7.35;2.03;;;23.30;91.50;;;;;;5074973;28;20257;-87
2022/05/27 10:45:19;;;;;;;9.98;2.45;;;23.50;90.60;;;;;;5092270;28;20037;-86
2022/05/27 10:48:22;;;;;;;7.35;2.28;;;23.70;90.10;;;;;;5076903;28;20016;-88
2022/05/27 10:51:00;;;;;;;6.70;1.65;;;23.80;89.60;;;;;;5093062;28;20032;-88
2022/05/27 10:53:47;;;;;;;8.57;1.90;;;23.40;90.00;;;;;;5096542;28;20150;-88
2022/05/27 10:56:25;;;;;;;6.53;1.80;;;23.10;90.10;;;;;;5093716;28;20029;-87
2022/05/27 11:02:07;;;;;;;10.20;2.92;;;22.70;89.50;;;;;;5077588;28;20031;-87
2022/05/27 11:04:54;;;;;;;8.77;2.17;;;23.00;89.50;;;;;;5092786;28;20190;-87
2022/05/27 11:07:52;;;;;;;6.97;1.80;;;23.40;88.90;;;;;;5077671;28;20036;-89
2022/05/27 11:10:36;;;;;;;13.25;3.50;;;23.10;89.10;;;;;;5077855;28;20380;-88
2022/05/27 11:16:38;;;;;;;9.10;2.33;;;24.30;89.40;;;;;;5079083;28;20536;-90
2022/05/27 11:19:28;;;;;;;6.00;2.17;;;24.20;85.90;;;;;;5093378;28;20090;-90
2022/05/27 11:22:11;;;;;;;6.72;2.20;;;24.00;86.60;;;;;;5093812;28;20067;-89
2022/05/27 11:24:55;;;;;;;12.13;2.35;;;24.40;86.30;;;;;;5093019;28;20071;-88
2022/05/27 11:28:08;;;;;;;10.00;1.80;;;24.50;86.00;;;;;;5092925;28;20111;-89
2022/05/27 11:30:46;;;;;;;11.90;1.70;;;24.60;85.00;;;;;;5047356;28;20093;-90
2022/05/27 11:33:36;;;;;;;7.18;1.95;;;25.00;84.90;;;;;;5093857;28;20047;-88
2022/05/27 11:36:10;;;;;;;6.57;1.70;;;25.30;82.50;;;;;;5077808;28;20116;-91
2022/05/27 11:38:38;;;;;;;6.65;1.73;;;25.30;82.30;;;;;;5093214;28;20024;-92
2022/05/27 11:41:29;;;;;;;6.80;1.80;;;25.10;82.10;;;;;;5092657;28;20028;-89
2022/05/27 11:44:10;;;;;;;6.18;2.05;;;24.80;82.60;;;;;;5076464;28;20013;-88
2022/05/27 11:47:03;;;;;;;7.15;1.70;;;24.80;83.30;;;;;;5092461;28;20119;-89
2022/05/27 11:49:35;;;;;;;7.40;2.05;;;24.40;83.00;;;;;;5092240;28;20021;-89
2022/05/27 11:52:13;;;;;;;4.77;1.50;;;24.00;83.30;;;;;;5092570;28;20028;-88
2022/05/27 11:55:01;;;;;;;5.50;1.63;;;23.40;83.10;;;;;;5076387;28;20028;-90
2022/05/27 11:57:42;;;;;;;5.68;1.92;;;22.90;84.30;;;;;;5092842;28;20035;-88
2022/05/27 12:00:16;;;;;;;7.50;1.77;;;22.70;84.00;;;;;;5091722;28;20020;-90
2022/05/27 12:03:12;;;;;;;6.60;1.80;;;22.30;85.10;;;;;;5076562;28;20047;-90
2022/05/27 12:06:03;;;;;;;6.35;2.00;;;22.20;84.70;;;;;;5091860;28;20049;-89
2022/05/27 12:08:35;;;;;;;5.32;1.65;;;22.30;85.80;;;;;;5076283;28;20028;-89
2022/05/27 12:11:33;;;;;;;5.68;1.80;;;23.20;85.30;;;;;;5092000;28;20031;-89
2022/05/27 12:14:14;;;;;;;8.40;1.90;;;24.00;84.30;;;;;;5076026;28;20028;-89
2022/05/27 12:16:43;;;;;;;8.98;2.42;;;24.60;82.70;;;;;;5091753;28;20509;-89
2022/05/27 12:19:44;;;;;;;5.70;1.58;;;24.90;81.40;;;;;;5074800;28;20025;-89
2022/05/27 12:22:20;;;;;;;7.07;2.05;;;25.00;82.00;;;;;;5052892;28;20371;-89
2022/05/27 12:24:53;;;;;;;7.93;2.10;;;24.70;82.10;;;;;;5091908;28;20025;-87
2022/05/27 12:27:19;;;;;;;6.82;1.88;;;25.00;82.40;;;;;;5075664;28;20100;-89
2022/05/27 12:29:50;;;;;;;5.15;1.70;;;25.10;80.70;;;;;;5091944;28;20074;-90
2022/05/27 12:32:18;;;;;;;6.55;1.92;;;24.90;80.80;;;;;;5092027;28;20043;-89
2022/05/27 12:35:13;;;;;;;6.50;2.10;;;24.90;81.10;;;;;;5091337;28;20024;-89
2022/05/27 12:37:49;;;;;;;6.40;1.95;;;24.30;79.60;;;;;;5090495;28;20082;-90
2022/05/27 12:40:32;;;;;;;4.95;1.40;;;24.10;79.70;;;;;;5091911;28;20016;-89
2022/05/27 12:43:17;;;;;;;7.85;1.77;;;24.40;78.20;;;;;;5091897;28;20174;-90
2022/05/27 12:45:53;;;;;;;5.30;1.40;;;24.70;77.00;;;;;;5075822;28;20037;-90
2022/05/27 12:48:39;;;;;;;5.78;1.95;;;24.50;77.80;;;;;;5091321;28;20020;-90
2022/05/27 12:51:06;;;;;;;6.05;1.90;;;24.10;78.00;;;;;;5076322;28;20086;-89
2022/05/27 12:53:45;;;;;;;5.82;1.80;;;24.30;78.00;;;;;;5091594;28;20024;-90
2022/05/27 13:02:21;;;;;;;8.03;1.30;;;25.80;75.90;;;;;;5075648;28;20032;-90
2022/05/27 13:05:03;;;;;;;6.65;1.70;;;25.30;75.10;;;;;;5074895;28;20052;-88
2022/05/27 13:07:37;;;;;;;7.05;1.58;;;25.20;76.00;;;;;;5075508;28;20531;-89
2022/05/27 13:10:23;;;;;;;5.50;1.88;;;24.80;75.50;;;;;;5091034;28;20535;-90
2022/05/27 13:12:56;;;;;;;6.43;1.35;;;24.50;75.80;;;;;;5080621;28;20025;-89
2022/05/27 13:15:55;;;;;;;5.18;1.50;;;24.30;76.50;;;;;;5090169;28;20021;-90
2022/05/27 13:18:37;;;;;;;4.90;1.48;;;24.10;76.60;;;;;;5074913;28;20103;-88
2022/05/27 13:21:20;;;;;;;3.77;1.50;;;24.00;77.20;;;;;;5075506;28;20024;-88
2022/05/27 13:24:03;;;;;;;7.68;1.80;;;23.70;77.00;;;;;;5074824;28;20036;-89
2022/05/27 13:26:38;;;;;;;4.75;1.33;;;23.80;76.00;;;;;;5075301;28;20032;-89
2022/05/27 13:29:17;;;;;;;5.30;1.67;;;24.40;75.60;;;;;;5090737;28;20158;-89
2022/05/27 13:31:44;;;;;;;7.07;2.17;;;24.90;74.50;;;;;;5090582;28;20028;-90
2022/05/27 13:34:20;;;;;;;6.10;1.75;;;24.80;74.90;;;;;;5074987;28;20025;-90
2022/05/27 13:37:00;;;;;;;6.88;1.70;;;24.40;74.20;;;;;;5075104;28;20024;-89
2022/05/27 13:39:31;;;;;;;6.28;1.70;;;23.50;74.00;;;;;;5091030;28;20385;-88
2022/05/27 13:41:57;;;;;;;4.18;1.30;;;23.20;74.30;;;;;;5090949;28;20359;-87
2022/05/27 13:44:24;;;;;;;6.00;1.48;;;23.50;74.40;;;;;;5075852;28;20104;-88
2022/05/27 13:46:56;;;;;;;5.05;1.30;;;24.10;74.60;;;;;;5094681;28;20136;-88
2022/05/27 13:49:33;;;;;;;7.30;1.63;;;24.10;74.00;;;;;;5098302;28;20021;-88
2022/05/27 13:52:00;;;;;;;5.53;1.50;;;23.30;73.10;;;;;;5076877;28;20025;-89
2022/05/27 13:54:35;;;;;;;5.78;1.80;;;22.60;74.40;;;;;;5090823;28;20058;-88
2022/05/27 13:57:05;;;;;;;4.93;1.35;;;22.80;74.70;;;;;;5075228;28;20028;-90
2022/05/27 13:59:42;;;;;;;5.50;1.73;;;23.20;74.30;;;;;;5075177;28;20039;-89
2022/05/27 14:02:38;;;;;;;5.68;1.42;;;23.30;73.30;;;;;;5090257;28;20055;-88
2022/05/27 14:05:09;;;;;;;6.13;1.38;;;23.10;72.90;;;;;;5072178;28;20041;-91
2022/05/27 14:07:40;;;;;;;4.25;1.40;;;23.00;73.20;;;;;;5090359;28;20560;-88
2022/05/27 14:10:16;;;;;;;7.70;1.40;;;23.00;73.50;;;;;;5089980;28;20099;-89
2022/05/27 14:12:42;;;;;;;6.43;1.73;;;22.90;73.30;;;;;;5092361;28;20024;-89
2022/05/27 14:15:12;;;;;;;4.60;1.50;;;22.80;73.80;;;;;;5093115;28;20073;-87
2022/05/27 14:17:41;;;;;;;6.18;1.20;;;22.80;73.30;;;;;;5074554;28;20020;-89
2022/05/27 14:20:13;;;;;;;8.73;1.60;;;22.80;73.80;;;;;;5090253;28;20120;-90
2022/05/27 14:22:48;;;;;;;5.25;1.58;;;22.90;74.10;;;;;;5089535;28;20029;-89
2022/05/27 14:25:27;;;;;;;5.03;1.33;;;22.80;73.80;;;;;;5089778;28;20065;-88
2022/05/27 14:27:54;;;;;;;4.20;1.33;;;22.80;75.10;;;;;;5077494;28;20081;-89
2022/05/27 14:30:33;;;;;;;7.00;1.60;;;22.90;74.30;;;;;;5093776;28;20084;-89
2022/05/27 14:32:59;;;;;;;6.25;1.73;;;23.00;73.80;;;;;;5078646;28;20027;-89
2022/05/27 14:35:28;;;;;;;6.45;1.63;;;23.00;73.90;;;;;;5094232;28;20581;-90
2022/05/27 14:38:13;;;;;;;5.13;1.63;;;23.00;74.20;;;;;;5078383;28;20031;-89
2022/05/27 14:40:46;;;;;;;6.43;1.50;;;22.90;74.10;;;;;;5094067;28;20032;-89
2022/05/27 14:43:39;;;;;;;6.55;1.40;;;22.70;73.80;;;;;;5077111;28;20031;-90
2022/05/27 14:46:23;;;;;;;4.82;1.60;;;22.40;74.90;;;;;;5093718;28;20032;-89
2022/05/27 14:48:55;;;;;;;4.57;1.10;;;22.40;74.20;;;;;;5078190;28;20024;-89
2022/05/27 14:51:37;;;;;;;7.00;1.60;;;22.10;74.70;;;;;;5093718;28;20027;-90
2022/05/27 14:54:22;;;;;;;4.75;1.48;;;22.30;74.80;;;;;;5093741;28;20021;-88
2022/05/27 14:56:50;;;;;;;5.32;1.40;;;22.40;74.50;;;;;;5077640;28;20028;-90
2022/05/27 14:59:31;;;;;;;6.47;1.25;;;22.70;74.80;;;;;;5077794;28;20036;-89
2022/05/27 15:01:57;;;;;;;5.95;1.38;;;22.90;74.60;;;;;;5076634;28;20501;-90
2022/05/27 15:04:28;;;;;;;6.95;1.75;;;22.80;75.10;;;;;;5093213;28;20032;-90
2022/05/27 15:07:16;;;;;;;4.60;1.20;;;22.70;75.00;;;;;;5078563;28;20028;-89
2022/05/27 15:09:42;;;;;;;5.82;1.42;;;22.20;75.20;;;;;;5062769;28;20032;-92
2022/05/27 15:12:20;;;;;;;6.90;1.83;;;21.70;75.90;;;;;;5077743;28;20024;-90
2022/05/27 15:14:49;;;;;;;5.13;1.30;;;21.50;77.10;;;;;;5079094;28;20028;-90
2022/05/27 15:17:34;;;;;;;6.78;1.67;;;21.50;77.20;;;;;;5077424;28;20020;-91
2022/05/27 15:20:08;;;;;;;6.57;1.73;;;21.60;77.20;;;;;;5077767;28;20104;-88
2022/05/27 15:22:51;;;;;;;4.28;1.30;;;21.70;78.00;;;;;;5077730;28;20035;-88
2022/05/27 15:25:20;;;;;;;5.55;1.50;;;21.90;77.10;;;;;;5077942;28;20036;-91
2022/05/27 15:33:32;;;;;;;4.95;1.27;;;21.90;77.50;;;;;;5077657;28;20078;-90
2022/05/27 15:35:57;;;;;;;6.72;1.33;;;22.10;77.50;;;;;;5076355;28;20086;-88
2022/05/27 15:38:26;;;;;;;5.43;1.38;;;22.20;77.80;;;;;;5076865;28;20028;-90
2022/05/27 15:40:53;;;;;;;5.88;1.60;;;22.30;78.10;;;;;;5110142;28;20050;-89
2022/05/27 15:43:53;;;;;;;6.03;1.50;;;22.00;77.00;;;;;;5095688;28;20028;-90
2022/05/27 15:46:21;;;;;;;7.13;1.30;;;21.60;77.20;;;;;;5088550;28;20381;-91
2022/05/27 15:48:48;;;;;;;3.47;1.17;;;21.10;78.90;;;;;;5114840;28;20028;-87
2022/05/27 15:51:15;;;;;;;6.00;1.63;;;20.80;78.70;;;;;;5116788;28;20367;-90
2022/05/27 15:53:41;;;;;;;8.18;1.40;;;20.50;78.40;;;;;;5098566;28;20024;-92
2022/05/27 15:56:08;;;;;;;4.68;1.42;;;20.20;78.80;;;;;;5095265;28;20032;-92
2022/05/27 15:58:36;;;;;;;4.65;1.10;;;20.30;79.00;;;;;;5094734;28;20043;-89
2022/05/27 16:01:02;;;;;;;5.15;1.33;;;20.40;79.40;;;;;;5094016;28;20107;-90
2022/05/27 16:03:30;;;;;;;4.65;1.00;;;20.50;79.60;;;;;;5094132;28;20036;-87
2022/05/27 16:06:00;;;;;;;4.93;1.38;;;20.70;79.30;;;;;;5095343;28;20047;-90
2022/05/27 16:08:26;;;;;;;5.15;1.00;;;20.70;79.30;;;;;;5097282;28;20031;-91
2022/05/27 16:10:56;;;;;;;3.88;1.30;;;20.80;79.40;;;;;;5096978;28;20026;-89
2022/05/27 16:13:28;;;;;;;7.38;1.95;;;20.70;78.80;;;;;;5101442;28;20099;-89
2022/05/27 16:18:39;;;;;;;5.68;1.20;;;20.20;79.10;;;;;;5096477;28;20504;-90
2022/05/27 16:21:06;;;;;;;8.35;1.90;;;20.10;79.60;;;;;;5094476;28;20079;-90
2022/05/27 16:23:33;;;;;;;6.70;1.40;;;19.90;79.50;;;;;;5094044;28;20028;-87
2022/05/27 16:25:58;;;;;;;5.03;1.30;;;19.60;80.20;;;;;;5094131;28;20054;-90
2022/05/27 16:28:24;;;;;;;5.93;1.40;;;19.40;80.50;;;;;;5094271;28;20048;-90
2022/05/27 16:30:50;;;;;;;7.47;1.25;;;19.30;80.30;;;;;;5094168;28;20073;-89
2022/05/27 16:33:16;;;;;;;6.00;1.17;;;19.20;80.70;;;;;;5094048;28;20028;-90
2022/05/27 16:35:42;;;;;;;4.35;1.30;;;19.10;81.50;;;;;;5091114;28;20024;-89
2022/05/27 16:38:09;;;;;;;5.10;1.27;;;18.90;81.00;;;;;;5094065;28;20020;-90
2022/05/27 16:40:35;;;;;;;6.38;1.35;;;18.70;81.30;;;;;;5094663;28;20066;-90
2022/05/27 16:43:01;;;;;;;8.35;1.50;;;18.60;81.90;;;;;;5094145;28;20012;-90
2022/05/27 16:45:27;;;;;;;4.63;1.30;;;18.40;81.20;;;;;;5094030;28;20042;-91
2022/05/27 16:47:53;;;;;;;4.22;1.10;;;18.20;82.00;;;;;;5093830;28;20093;-89
2022/05/27 16:50:23;;;;;;;4.60;1.30;;;18.10;82.40;;;;;;5093425;28;20036;-90
2022/05/27 16:52:50;;;;;;;4.32;1.30;;;18.30;83.10;;;;;;5095117;28;20062;-89
2022/05/27 16:55:16;;;;;;;5.28;1.20;;;18.30;82.60;;;;;;5094105;28;20129;-87
2022/05/27 16:57:42;;;;;;;6.75;1.23;;;18.30;82.70;;;;;;5094915;28;20016;-90
2022/05/27 17:00:13;;;;;;;4.32;1.15;;;18.40;83.10;;;;;;5093337;28;20724;-89
2022/05/27 17:02:41;;;;;;;9.20;1.02;;;18.40;83.20;;;;;;5094098;28;20090;-88
2022/05/27 17:05:07;;;;;;;4.88;1.30;;;18.50;83.10;;;;;;5093396;28;20402;-89
2022/05/27 17:07:33;;;;;;;5.10;1.42;;;18.30;82.80;;;;;;5093867;28;20067;-90
2022/05/27 17:09:59;;;;;;;4.05;1.20;;;18.10;82.50;;;;;;5094628;28;20047;-90
2022/05/27 17:12:25;;;;;;;5.43;1.10;;;17.90;82.80;;;;;;5095417;28;20030;-89
2022/05/27 17:14:51;;;;;;;3.50;0.93;;;17.80;83.20;;;;;;5094717;28;20020;-88
2022/05/27 17:17:18;;;;;;;4.80;1.27;;;17.80;83.40;;;;;;5096104;28;20032;-88
2022/05/27 17:19:44;;;;;;;3.97;1.05;;;17.90;83.60;;;;;;5095733;28;20024;-89
2022/05/27 17:22:11;;;;;;;6.90;1.38;;;17.90;84.10;;;;;;5095684;28;20077;-87
2022/05/27 17:24:38;;;;;;;4.43;0.90;;;17.80;84.00;;;;;;5096865;28;20024;-90
2022/05/27 17:27:04;;;;;;;5.20;1.25;;;17.70;84.10;;;;;;5096160;28;20020;-88
2022/05/27 17:29:30;;;;;;;5.82;1.23;;;17.60;84.10;;;;;;5099806;28;20020;-87
2022/05/27 17:31:56;;;;;;;3.15;1.00;;;17.50;84.30;;;;;;5096714;28;20424;-88
2022/05/27 17:34:23;;;;;;;6.25;1.50;;;17.50;84.30;;;;;;5095169;28;20032;-88
2022/05/27 17:36:49;;;;;;;6.38;1.60;;;17.40;84.70;;;;;;5099270;28;20020;-90
2022/05/27 17:39:16;;;;;;;3.47;0.90;;;17.40;84.80;;;;;;5095413;28;20024;-89
2022/05/27 17:41:43;;;;;;;4.90;1.05;;;17.30;85.00;;;;;;5096986;28;20020;-88
2022/05/27 17:44:08;;;;;;;4.43;1.10;;;17.20;85.30;;;;;;5101474;28;20102;-89
2022/05/27 17:52:04;;;;;;;4.13;1.27;;;17.20;86.00;;;;;;5095479;28;20252;-89
2022/05/27 17:54:31;;;;;;;3.83;1.10;;;17.20;86.00;;;;;;5093185;28;20024;-89
2022/05/27 17:56:58;;;;;;;5.07;1.30;;;17.20;86.40;;;;;;5093601;28;20059;-91
2022/05/27 17:59:24;;;;;;;4.85;1.40;;;17.20;86.50;;;;;;5092973;28;20448;-87
2022/05/27 18:01:50;;;;;;;7.50;1.48;;;17.00;86.50;;;;;;5092893;28;20105;-88
2022/05/27 18:04:17;;;;;;;6.28;1.20;;;16.90;86.90;;;;;;5093068;28;20040;-86
2022/05/27 18:06:44;;;;;;;4.47;1.00;;;16.70;87.00;;;;;;5093122;28;20054;-90
2022/05/27 18:09:10;;;;;;;6.03;1.15;;;16.60;87.00;;;;;;5093436;28;20424;-89
2022/05/27 18:11:36;;;;;;;4.60;1.30;;;16.50;87.20;;;;;;5092816;28;20016;-89
2022/05/27 18:14:02;;;;;;;6.22;1.10;;;16.40;87.40;;;;;;5094183;28;20028;-90
2022/05/27 18:16:28;;;;;;;4.00;1.00;;;16.30;87.70;;;;;;5092950;28;20122;-89
2022/05/27 18:18:53;;;;;;;4.38;1.00;;;16.30;88.60;;;;;;5092716;28;20496;-89
2022/05/27 18:21:22;;;;;;;5.45;1.13;;;16.40;88.30;;;;;;5093442;28;20031;-89
2022/05/27 18:23:48;;;;;;;4.70;0.98;;;16.40;89.00;;;;;;5095021;28;20020;-90
2022/05/27 18:26:14;;;;;;;4.55;1.15;;;16.40;88.70;;;;;;5093135;28;20043;-90
2022/05/27 18:28:40;;;;;;;3.00;1.10;;;16.30;88.80;;;;;;5093281;28;20020;-90
2022/05/27 18:31:06;;;;;;;6.07;1.23;;;16.20;89.70;;;;;;5093662;28;20024;-88
2022/05/27 18:33:35;;;;;;;5.72;1.30;;;16.20;89.40;;;;;;5092889;28;20024;-90
2022/05/27 18:36:00;;;;;;;3.70;1.00;;;16.10;89.50;;;;;;5086194;28;20032;-90
2022/05/27 18:38:26;;;;;;;4.60;1.25;;;16.10;90.00;;;;;;5082506;28;20029;-89
2022/05/27 18:40:52;;;;;;;3.38;0.90;;;16.20;90.30;;;;;;5088179;28;20562;-88
2022/05/27 18:43:18;;;;;;;4.00;1.20;;;16.10;90.10;;;;;;5069904;28;20094;-89
2022/05/27 18:45:44;;;;;;;3.47;0.95;;;16.00;90.20;;;;;;5068340;28;20166;-88
2022/05/27 18:48:10;;;;;;;4.18;1.15;;;16.00;90.40;;;;;;5081137;28;20021;-88
2022/05/27 18:50:37;;;;;;;7.18;1.40;;;15.90;90.60;;;;;;5074194;28;20024;-90
2022/05/27 18:53:09;;;;;;;5.75;1.60;;;15.80;90.40;;;;;;5088238;28;20028;-90
2022/05/27 18:55:35;;;;;;;3.65;1.05;;;15.70;90.40;;;;;;5068751;28;20024;-88
2022/05/27 18:58:00;;;;;;;3.78;0.90;;;15.60;90.50;;;;;;5095516;28;20050;-88
2022/05/27 19:00:26;;;;;;;4.35;0.98;;;15.50;90.50;;;;;;5087391;28;20020;-88
2022/05/27 19:02:52;;;;;;;5.88;1.00;;;15.50;90.60;;;;;;5088178;28;20139;-89
2022/05/27 19:05:19;;;;;;;4.68;1.05;;;15.40;90.70;;;;;;5087388;28;20063;-88
2022/05/27 19:07:46;;;;;;;6.28;1.17;;;15.40;90.70;;;;;;5089180;28;20028;-89
2022/05/27 19:10:14;;;;;;;3.33;0.95;;;15.30;90.90;;;;;;5091570;28;20117;-88
2022/05/27 19:12:42;;;;;;;3.95;0.98;;;15.30;91.00;;;;;;5075166;28;20020;-88
2022/05/27 19:15:10;;;;;;;3.70;1.05;;;15.30;91.00;;;;;;5089134;28;20013;-89
2022/05/27 19:17:36;;;;;;;4.15;1.20;;;15.20;91.00;;;;;;5079719;28;20048;-89
2022/05/27 19:22:47;;;;;;;2.78;0.85;;;15.10;91.10;;;;;;5087966;28;20090;-88
2022/05/27 19:25:13;;;;;;;3.88;0.77;;;15.10;91.30;;;;;;5075596;28;20458;-90
2022/05/27 19:27:39;;;;;;;2.17;0.80;;;15.00;91.30;;;;;;5092501;28;20477;-89
2022/05/27 19:30:06;;;;;;;2.33;0.70;;;15.00;91.50;;;;;;5084189;28;20031;-89
2022/05/27 19:32:32;;;;;;;3.55;0.93;;;15.00;91.60;;;;;;5074786;28;20066;-88
2022/05/27 19:34:57;;;;;;;3.22;0.82;;;15.10;91.70;;;;;;5088243;28;20416;-90
2022/05/27 19:37:27;;;;;;;3.13;0.73;;;15.10;91.80;;;;;;5090123;28;20313;-89
2022/05/27 19:39:54;;;;;;;3.78;0.80;;;15.20;91.80;;;;;;5094755;28;20058;-91
2022/05/27 19:42:20;;;;;;;4.30;1.15;;;15.20;92.00;;;;;;5077092;28;20035;-94
2022/05/27 19:44:46;;;;;;;2.70;0.60;;;15.20;92.00;;;;;;5068889;28;20020;-91
2022/05/27 19:47:12;;;;;;;3.53;0.80;;;15.10;92.10;;;;;;5073431;28;20105;-89
2022/05/27 19:49:38;;;;;;;2.72;0.85;;;15.10;92.20;;;;;;5081659;28;20032;-89
2022/05/27 19:52:06;;;;;;;2.95;0.75;;;15.10;92.30;;;;;;5079578;28;20118;-90
2022/05/27 19:54:33;;;;;;;3.13;0.90;;;15.10;92.30;;;;;;5077082;28;20454;-93
2022/05/27 19:56:59;;;;;;;3.60;0.93;;;15.10;92.50;;;;;;5087799;28;20059;-87
2022/05/27 19:59:35;;;;;;;1.90;0.55;;;15.10;92.50;;;;;;5089099;28;20074;-89
2022/05/27 20:04:55;;;;;;;3.58;0.65;;;15.00;92.70;;;;;;5086682;28;20058;-87
2022/05/27 20:07:27;;;;;;;3.60;0.88;;;15.00;93.00;;;;;;5087338;28;20065;-88
2022/05/27 20:09:54;;;;;;;4.25;1.20;;;14.90;93.30;;;;;;5089193;28;20024;-86